sensor_id;sensor_type;location;lat;lon;timestamp;P1;durP1;ratioP1;P2;durP2;ratioP2
20855;SDS011;63058;49.424;8.420;2023-07-22T00:00:55;2.42;;;1.30;;
20855;SDS011;63058;49.424;8.420;2023-07-22T00:03:20;2.45;;;1.02;;
20855;SDS011;63058;49.424;8.420;2023-07-22T00:05:47;3.92;;;1.00;;
20855;SDS011;63058;49.424;8.420;2023-07-22T00:08:13;1.40;;;1.13;;
20855;SDS011;63058;49.424;8.420;2023-07-22T00:10:42;2.40;;;1.40;;
20855;SDS011;63058;49.424;8.420;2023-07-22T00:13:08;1.38;;;1.20;;
20855;SDS011;63058;49.424;8.420;2023-07-22T00:15:33;1.80;;;1.27;;
20855;SDS011;63058;49.424;8.420;2023-07-22T00:17:59;3.90;;;1.05;;
20855;SDS011;63058;49.424;8.420;2023-07-22T00:20:25;1.38;;;1.10;;
20855;SDS011;63058;49.424;8.420;2023-07-22T00:22:51;3.10;;;1.30;;
20855;SDS011;63058;49.424;8.420;2023-07-22T00:25:17;2.00;;;1.10;;
20855;SDS011;63058;49.424;8.420;2023-07-22T00:27:43;1.65;;;1.00;;
20855;SDS011;63058;49.424;8.420;2023-07-22T00:30:08;1.25;;;1.05;;
20855;SDS011;63058;49.424;8.420;2023-07-22T00:32:34;1.92;;;1.10;;
20855;SDS011;63058;49.424;8.420;2023-07-22T00:35:04;1.83;;;1.13;;
20855;SDS011;63058;49.424;8.420;2023-07-22T00:37:30;5.10;;;1.33;;
20855;SDS011;63058;49.424;8.420;2023-07-22T00:39:57;1.73;;;1.10;;
20855;SDS011;63058;49.424;8.420;2023-07-22T00:42:22;1.15;;;1.05;;
20855;SDS011;63058;49.424;8.420;2023-07-22T00:44:48;2.33;;;1.15;;
20855;SDS011;63058;49.424;8.420;2023-07-22T00:47:14;2.35;;;1.02;;
20855;SDS011;63058;49.424;8.420;2023-07-22T00:49:40;2.97;;;1.50;;
20855;SDS011;63058;49.424;8.420;2023-07-22T00:52:06;1.75;;;1.17;;
20855;SDS011;63058;49.424;8.420;2023-07-22T00:54:31;1.30;;;1.17;;
20855;SDS011;63058;49.424;8.420;2023-07-22T00:56:57;1.70;;;1.02;;
20855;SDS011;63058;49.424;8.420;2023-07-22T00:59:24;1.60;;;1.00;;
20855;SDS011;63058;49.424;8.420;2023-07-22T01:01:50;2.70;;;1.40;;
20855;SDS011;63058;49.424;8.420;2023-07-22T01:04:15;2.05;;;1.10;;
20855;SDS011;63058;49.424;8.420;2023-07-22T01:06:44;1.50;;;1.00;;
20855;SDS011;63058;49.424;8.420;2023-07-22T01:09:10;1.88;;;1.10;;
20855;SDS011;63058;49.424;8.420;2023-07-22T01:11:36;1.90;;;1.35;;
20855;SDS011;63058;49.424;8.420;2023-07-22T01:14:02;2.85;;;1.25;;
20855;SDS011;63058;49.424;8.420;2023-07-22T01:16:28;5.05;;;1.48;;
20855;SDS011;63058;49.424;8.420;2023-07-22T01:18:55;3.42;;;1.60;;
20855;SDS011;63058;49.424;8.420;2023-07-22T01:21:24;2.40;;;1.75;;
20855;SDS011;63058;49.424;8.420;2023-07-22T01:23:51;1.85;;;1.25;;
20855;SDS011;63058;49.424;8.420;2023-07-22T01:26:17;1.17;;;1.08;;
20855;SDS011;63058;49.424;8.420;2023-07-22T01:28:43;2.45;;;1.08;;
20855;SDS011;63058;49.424;8.420;2023-07-22T01:31:09;2.75;;;1.35;;
20855;SDS011;63058;49.424;8.420;2023-07-22T01:33:35;1.70;;;1.30;;
20855;SDS011;63058;49.424;8.420;2023-07-22T01:36:00;2.70;;;1.10;;
20855;SDS011;63058;49.424;8.420;2023-07-22T01:38:26;1.50;;;1.05;;
20855;SDS011;63058;49.424;8.420;2023-07-22T01:40:54;1.75;;;1.15;;
20855;SDS011;63058;49.424;8.420;2023-07-22T01:43:19;1.45;;;1.20;;
20855;SDS011;63058;49.424;8.420;2023-07-22T01:45:45;2.05;;;1.10;;
20855;SDS011;63058;49.424;8.420;2023-07-22T01:48:10;1.50;;;1.30;;
20855;SDS011;63058;49.424;8.420;2023-07-22T01:50:36;2.60;;;1.25;;
20855;SDS011;63058;49.424;8.420;2023-07-22T01:53:01;2.15;;;1.40;;
20855;SDS011;63058;49.424;8.420;2023-07-22T01:55:28;1.40;;;1.30;;
20855;SDS011;63058;49.424;8.420;2023-07-22T01:57:54;2.42;;;1.48;;
20855;SDS011;63058;49.424;8.420;2023-07-22T02:00:20;2.17;;;1.50;;
20855;SDS011;63058;49.424;8.420;2023-07-22T02:02:46;2.22;;;1.45;;
20855;SDS011;63058;49.424;8.420;2023-07-22T02:05:11;1.88;;;1.45;;
20855;SDS011;63058;49.424;8.420;2023-07-22T02:07:37;4.55;;;1.50;;
20855;SDS011;63058;49.424;8.420;2023-07-22T02:10:03;1.50;;;1.40;;
20855;SDS011;63058;49.424;8.420;2023-07-22T02:12:29;2.92;;;1.35;;
20855;SDS011;63058;49.424;8.420;2023-07-22T02:14:55;4.00;;;1.27;;
20855;SDS011;63058;49.424;8.420;2023-07-22T02:17:20;2.20;;;1.40;;
20855;SDS011;63058;49.424;8.420;2023-07-22T02:19:46;1.90;;;1.40;;
20855;SDS011;63058;49.424;8.420;2023-07-22T02:22:12;1.60;;;1.35;;
20855;SDS011;63058;49.424;8.420;2023-07-22T02:24:38;1.83;;;1.40;;
20855;SDS011;63058;49.424;8.420;2023-07-22T02:27:03;2.30;;;1.58;;
20855;SDS011;63058;49.424;8.420;2023-07-22T02:29:29;1.90;;;1.45;;
20855;SDS011;63058;49.424;8.420;2023-07-22T02:31:56;2.83;;;1.52;;
20855;SDS011;63058;49.424;8.420;2023-07-22T02:34:22;4.03;;;1.75;;
20855;SDS011;63058;49.424;8.420;2023-07-22T02:36:48;2.00;;;1.38;;
20855;SDS011;63058;49.424;8.420;2023-07-22T02:39:14;2.63;;;1.52;;
20855;SDS011;63058;49.424;8.420;2023-07-22T02:41:39;4.30;;;1.48;;
20855;SDS011;63058;49.424;8.420;2023-07-22T02:44:05;4.80;;;1.70;;
20855;SDS011;63058;49.424;8.420;2023-07-22T02:46:30;1.67;;;1.48;;
20855;SDS011;63058;49.424;8.420;2023-07-22T02:48:56;2.03;;;1.83;;
20855;SDS011;63058;49.424;8.420;2023-07-22T02:51:23;2.38;;;1.73;;
20855;SDS011;63058;49.424;8.420;2023-07-22T02:53:49;2.10;;;1.50;;
20855;SDS011;63058;49.424;8.420;2023-07-22T02:56:15;1.90;;;1.60;;
20855;SDS011;63058;49.424;8.420;2023-07-22T02:58:40;2.00;;;1.77;;
20855;SDS011;63058;49.424;8.420;2023-07-22T03:01:07;3.42;;;1.58;;
20855;SDS011;63058;49.424;8.420;2023-07-22T03:03:33;1.85;;;1.48;;
20855;SDS011;63058;49.424;8.420;2023-07-22T03:06:00;1.75;;;1.60;;
20855;SDS011;63058;49.424;8.420;2023-07-22T03:08:26;2.00;;;1.60;;
20855;SDS011;63058;49.424;8.420;2023-07-22T03:10:51;3.00;;;2.00;;
20855;SDS011;63058;49.424;8.420;2023-07-22T03:13:17;1.63;;;1.40;;
20855;SDS011;63058;49.424;8.420;2023-07-22T03:15:43;1.77;;;1.60;;
20855;SDS011;63058;49.424;8.420;2023-07-22T03:18:09;2.10;;;1.80;;
20855;SDS011;63058;49.424;8.420;2023-07-22T03:20:35;1.48;;;1.25;;
20855;SDS011;63058;49.424;8.420;2023-07-22T03:23:02;1.65;;;1.55;;
20855;SDS011;63058;49.424;8.420;2023-07-22T03:25:27;3.03;;;1.70;;
20855;SDS011;63058;49.424;8.420;2023-07-22T03:27:53;1.42;;;1.20;;
20855;SDS011;63058;49.424;8.420;2023-07-22T03:30:21;1.75;;;1.65;;
20855;SDS011;63058;49.424;8.420;2023-07-22T03:32:47;2.00;;;1.45;;
20855;SDS011;63058;49.424;8.420;2023-07-22T03:35:15;1.67;;;1.48;;
20855;SDS011;63058;49.424;8.420;2023-07-22T03:37:43;2.30;;;1.60;;
20855;SDS011;63058;49.424;8.420;2023-07-22T03:40:09;2.22;;;1.67;;
20855;SDS011;63058;49.424;8.420;2023-07-22T03:42:48;2.13;;;1.90;;
20855;SDS011;63058;49.424;8.420;2023-07-22T03:45:15;2.08;;;1.85;;
20855;SDS011;63058;49.424;8.420;2023-07-22T03:47:50;2.72;;;1.83;;
20855;SDS011;63058;49.424;8.420;2023-07-22T03:50:17;3.80;;;1.80;;
20855;SDS011;63058;49.424;8.420;2023-07-22T03:52:43;1.80;;;1.70;;
20855;SDS011;63058;49.424;8.420;2023-07-22T03:55:08;2.80;;;1.98;;
20855;SDS011;63058;49.424;8.420;2023-07-22T03:57:34;1.63;;;1.50;;
20855;SDS011;63058;49.424;8.420;2023-07-22T04:00:00;1.85;;;1.40;;
20855;SDS011;63058;49.424;8.420;2023-07-22T04:02:26;1.95;;;1.50;;
20855;SDS011;63058;49.424;8.420;2023-07-22T04:04:53;2.90;;;2.30;;
20855;SDS011;63058;49.424;8.420;2023-07-22T04:07:19;3.13;;;1.70;;
20855;SDS011;63058;49.424;8.420;2023-07-22T04:09:45;2.20;;;1.98;;
20855;SDS011;63058;49.424;8.420;2023-07-22T04:12:10;2.03;;;1.52;;
20855;SDS011;63058;49.424;8.420;2023-07-22T04:14:36;1.55;;;1.40;;
20855;SDS011;63058;49.424;8.420;2023-07-22T04:17:03;2.90;;;2.05;;
20855;SDS011;63058;49.424;8.420;2023-07-22T04:19:31;1.70;;;1.50;;
20855;SDS011;63058;49.424;8.420;2023-07-22T04:21:57;4.93;;;1.88;;
20855;SDS011;63058;49.424;8.420;2023-07-22T04:24:24;3.03;;;1.77;;
20855;SDS011;63058;49.424;8.420;2023-07-22T04:26:50;2.92;;;2.20;;
20855;SDS011;63058;49.424;8.420;2023-07-22T04:29:16;2.22;;;2.03;;
20855;SDS011;63058;49.424;8.420;2023-07-22T04:31:41;3.22;;;1.98;;
20855;SDS011;63058;49.424;8.420;2023-07-22T04:34:07;2.63;;;1.80;;
20855;SDS011;63058;49.424;8.420;2023-07-22T04:36:33;2.92;;;1.77;;
20855;SDS011;63058;49.424;8.420;2023-07-22T04:38:59;2.33;;;2.00;;
20855;SDS011;63058;49.424;8.420;2023-07-22T04:41:24;2.92;;;2.03;;
20855;SDS011;63058;49.424;8.420;2023-07-22T04:43:50;3.25;;;1.90;;
20855;SDS011;63058;49.424;8.420;2023-07-22T04:46:16;2.85;;;2.08;;
20855;SDS011;63058;49.424;8.420;2023-07-22T04:48:42;2.25;;;2.00;;
20855;SDS011;63058;49.424;8.420;2023-07-22T04:51:08;2.10;;;1.80;;
20855;SDS011;63058;49.424;8.420;2023-07-22T04:53:33;4.53;;;2.05;;
20855;SDS011;63058;49.424;8.420;2023-07-22T04:55:59;2.17;;;1.98;;
20855;SDS011;63058;49.424;8.420;2023-07-22T04:58:24;1.75;;;1.63;;
20855;SDS011;63058;49.424;8.420;2023-07-22T05:00:50;1.98;;;1.52;;
20855;SDS011;63058;49.424;8.420;2023-07-22T05:03:16;2.78;;;1.90;;
20855;SDS011;63058;49.424;8.420;2023-07-22T05:05:43;2.63;;;1.88;;
20855;SDS011;63058;49.424;8.420;2023-07-22T05:08:08;2.80;;;1.92;;
20855;SDS011;63058;49.424;8.420;2023-07-22T05:10:34;2.97;;;1.90;;
20855;SDS011;63058;49.424;8.420;2023-07-22T05:12:59;2.28;;;2.03;;
20855;SDS011;63058;49.424;8.420;2023-07-22T05:15:25;2.45;;;1.90;;
20855;SDS011;63058;49.424;8.420;2023-07-22T05:17:51;1.90;;;1.63;;
20855;SDS011;63058;49.424;8.420;2023-07-22T05:20:16;3.55;;;1.85;;
20855;SDS011;63058;49.424;8.420;2023-07-22T05:22:42;2.20;;;1.95;;
20855;SDS011;63058;49.424;8.420;2023-07-22T05:25:08;2.10;;;1.90;;
20855;SDS011;63058;49.424;8.420;2023-07-22T05:27:37;2.17;;;1.95;;
20855;SDS011;63058;49.424;8.420;2023-07-22T05:30:04;3.13;;;2.03;;
20855;SDS011;63058;49.424;8.420;2023-07-22T05:32:31;2.92;;;2.00;;
20855;SDS011;63058;49.424;8.420;2023-07-22T05:34:56;1.75;;;1.63;;
20855;SDS011;63058;49.424;8.420;2023-07-22T05:37:23;2.40;;;1.60;;
20855;SDS011;63058;49.424;8.420;2023-07-22T05:39:48;3.17;;;1.92;;
20855;SDS011;63058;49.424;8.420;2023-07-22T05:42:14;2.33;;;2.08;;
20855;SDS011;63058;49.424;8.420;2023-07-22T05:44:40;1.70;;;1.60;;
20855;SDS011;63058;49.424;8.420;2023-07-22T05:47:05;1.80;;;1.48;;
20855;SDS011;63058;49.424;8.420;2023-07-22T05:49:31;2.58;;;1.80;;
20855;SDS011;63058;49.424;8.420;2023-07-22T05:51:56;2.72;;;1.80;;
20855;SDS011;63058;49.424;8.420;2023-07-22T05:54:22;3.30;;;1.67;;
20855;SDS011;63058;49.424;8.420;2023-07-22T05:56:47;2.28;;;1.60;;
20855;SDS011;63058;49.424;8.420;2023-07-22T05:59:13;2.90;;;1.90;;
20855;SDS011;63058;49.424;8.420;2023-07-22T06:01:39;2.35;;;1.83;;
20855;SDS011;63058;49.424;8.420;2023-07-22T06:04:05;3.22;;;1.70;;
20855;SDS011;63058;49.424;8.420;2023-07-22T06:06:31;2.38;;;1.55;;
20855;SDS011;63058;49.424;8.420;2023-07-22T06:08:56;4.25;;;2.13;;
20855;SDS011;63058;49.424;8.420;2023-07-22T06:11:22;2.20;;;1.70;;
20855;SDS011;63058;49.424;8.420;2023-07-22T06:13:47;3.22;;;2.20;;
20855;SDS011;63058;49.424;8.420;2023-07-22T06:16:13;1.50;;;1.40;;
20855;SDS011;63058;49.424;8.420;2023-07-22T06:18:39;2.47;;;2.20;;
20855;SDS011;63058;49.424;8.420;2023-07-22T06:21:05;2.88;;;2.13;;
20855;SDS011;63058;49.424;8.420;2023-07-22T06:23:30;2.22;;;1.80;;
20855;SDS011;63058;49.424;8.420;2023-07-22T06:25:56;2.33;;;1.95;;
20855;SDS011;63058;49.424;8.420;2023-07-22T06:28:21;2.72;;;1.58;;
20855;SDS011;63058;49.424;8.420;2023-07-22T06:30:47;2.05;;;1.73;;
20855;SDS011;63058;49.424;8.420;2023-07-22T06:33:12;2.40;;;2.00;;
20855;SDS011;63058;49.424;8.420;2023-07-22T06:35:38;2.85;;;1.80;;
20855;SDS011;63058;49.424;8.420;2023-07-22T06:38:04;2.63;;;1.52;;
20855;SDS011;63058;49.424;8.420;2023-07-22T06:40:29;2.22;;;1.50;;
20855;SDS011;63058;49.424;8.420;2023-07-22T06:42:55;3.08;;;2.05;;
20855;SDS011;63058;49.424;8.420;2023-07-22T06:45:20;3.33;;;1.83;;
20855;SDS011;63058;49.424;8.420;2023-07-22T06:47:46;3.03;;;1.65;;
20855;SDS011;63058;49.424;8.420;2023-07-22T06:50:12;3.13;;;2.05;;
20855;SDS011;63058;49.424;8.420;2023-07-22T06:52:37;3.50;;;1.77;;
20855;SDS011;63058;49.424;8.420;2023-07-22T06:55:03;3.05;;;1.90;;
20855;SDS011;63058;49.424;8.420;2023-07-22T06:57:30;2.47;;;1.70;;
20855;SDS011;63058;49.424;8.420;2023-07-22T06:59:55;6.35;;;2.10;;
20855;SDS011;63058;49.424;8.420;2023-07-22T07:02:21;2.33;;;1.77;;
20855;SDS011;63058;49.424;8.420;2023-07-22T07:04:47;2.45;;;1.77;;
20855;SDS011;63058;49.424;8.420;2023-07-22T07:07:13;2.33;;;1.75;;
20855;SDS011;63058;49.424;8.420;2023-07-22T07:09:40;2.58;;;2.10;;
20855;SDS011;63058;49.424;8.420;2023-07-22T07:12:06;1.80;;;1.52;;
20855;SDS011;63058;49.424;8.420;2023-07-22T07:14:35;2.88;;;1.90;;
20855;SDS011;63058;49.424;8.420;2023-07-22T07:17:01;3.13;;;2.05;;
20855;SDS011;63058;49.424;8.420;2023-07-22T07:19:27;3.50;;;2.13;;
20855;SDS011;63058;49.424;8.420;2023-07-22T07:21:53;3.05;;;2.00;;
20855;SDS011;63058;49.424;8.420;2023-07-22T07:24:18;2.60;;;1.80;;
20855;SDS011;63058;49.424;8.420;2023-07-22T07:26:44;2.38;;;1.88;;
20855;SDS011;63058;49.424;8.420;2023-07-22T07:29:10;3.65;;;1.50;;
20855;SDS011;63058;49.424;8.420;2023-07-22T07:31:37;2.42;;;1.60;;
20855;SDS011;63058;49.424;8.420;2023-07-22T07:34:03;4.28;;;1.80;;
20855;SDS011;63058;49.424;8.420;2023-07-22T07:36:28;2.25;;;1.52;;
20855;SDS011;63058;49.424;8.420;2023-07-22T07:38:54;5.00;;;1.98;;
20855;SDS011;63058;49.424;8.420;2023-07-22T07:41:20;3.72;;;1.80;;
20855;SDS011;63058;49.424;8.420;2023-07-22T07:43:46;3.55;;;1.60;;
20855;SDS011;63058;49.424;8.420;2023-07-22T07:48:56;2.40;;;1.70;;
20855;SDS011;63058;49.424;8.420;2023-07-22T07:51:24;2.47;;;1.48;;
20855;SDS011;63058;49.424;8.420;2023-07-22T07:53:51;2.83;;;1.42;;
20855;SDS011;63058;49.424;8.420;2023-07-22T07:56:18;1.88;;;1.55;;
20855;SDS011;63058;49.424;8.420;2023-07-22T07:58:44;2.83;;;1.70;;
20855;SDS011;63058;49.424;8.420;2023-07-22T08:01:10;2.22;;;1.50;;
20855;SDS011;63058;49.424;8.420;2023-07-22T08:03:37;3.38;;;1.60;;
20855;SDS011;63058;49.424;8.420;2023-07-22T08:06:03;2.42;;;1.40;;
20855;SDS011;63058;49.424;8.420;2023-07-22T08:08:29;1.70;;;1.50;;
20855;SDS011;63058;49.424;8.420;2023-07-22T08:10:59;2.22;;;1.30;;
20855;SDS011;63058;49.424;8.420;2023-07-22T08:13:35;1.98;;;1.42;;
20855;SDS011;63058;49.424;8.420;2023-07-22T08:16:02;2.95;;;1.48;;
20855;SDS011;63058;49.424;8.420;2023-07-22T08:18:33;1.40;;;1.30;;
20855;SDS011;63058;49.424;8.420;2023-07-22T08:21:00;1.45;;;1.30;;
20855;SDS011;63058;49.424;8.420;2023-07-22T08:23:27;1.77;;;1.38;;
20855;SDS011;63058;49.424;8.420;2023-07-22T08:25:53;2.55;;;1.40;;
20855;SDS011;63058;49.424;8.420;2023-07-22T08:28:19;1.50;;;1.20;;
20855;SDS011;63058;49.424;8.420;2023-07-22T08:30:44;1.40;;;1.30;;
20855;SDS011;63058;49.424;8.420;2023-07-22T08:33:11;2.65;;;1.48;;
20855;SDS011;63058;49.424;8.420;2023-07-22T08:35:42;1.52;;;1.38;;
20855;SDS011;63058;49.424;8.420;2023-07-22T08:38:08;1.50;;;1.20;;
20855;SDS011;63058;49.424;8.420;2023-07-22T08:40:38;3.92;;;1.35;;
20855;SDS011;63058;49.424;8.420;2023-07-22T08:43:05;2.70;;;1.30;;
20855;SDS011;63058;49.424;8.420;2023-07-22T08:45:35;3.65;;;1.38;;
20855;SDS011;63058;49.424;8.420;2023-07-22T08:48:04;1.60;;;1.30;;
20855;SDS011;63058;49.424;8.420;2023-07-22T08:50:45;2.08;;;1.27;;
20855;SDS011;63058;49.424;8.420;2023-07-22T08:53:20;1.30;;;1.15;;
20855;SDS011;63058;49.424;8.420;2023-07-22T08:55:48;1.98;;;1.50;;
20855;SDS011;63058;49.424;8.420;2023-07-22T08:58:14;3.70;;;1.40;;
20855;SDS011;63058;49.424;8.420;2023-07-22T09:00:41;2.10;;;1.35;;
20855;SDS011;63058;49.424;8.420;2023-07-22T09:03:07;2.35;;;1.20;;
20855;SDS011;63058;49.424;8.420;2023-07-22T09:05:35;1.92;;;1.15;;
20855;SDS011;63058;49.424;8.420;2023-07-22T09:08:02;3.88;;;1.58;;
20855;SDS011;63058;49.424;8.420;2023-07-22T09:10:29;3.08;;;2.00;;
20855;SDS011;63058;49.424;8.420;2023-07-22T09:12:55;2.30;;;1.42;;
20855;SDS011;63058;49.424;8.420;2023-07-22T09:15:21;2.95;;;1.20;;
20855;SDS011;63058;49.424;8.420;2023-07-22T09:17:48;1.73;;;1.40;;
20855;SDS011;63058;49.424;8.420;2023-07-22T09:20:14;1.70;;;1.25;;
20855;SDS011;63058;49.424;8.420;2023-07-22T09:22:44;3.47;;;1.20;;
20855;SDS011;63058;49.424;8.420;2023-07-22T09:25:12;1.60;;;1.10;;
20855;SDS011;63058;49.424;8.420;2023-07-22T09:27:45;1.73;;;1.23;;
20855;SDS011;63058;49.424;8.420;2023-07-22T09:30:27;3.53;;;1.25;;
20855;SDS011;63058;49.424;8.420;2023-07-22T09:32:58;2.63;;;1.05;;
20855;SDS011;63058;49.424;8.420;2023-07-22T09:35:26;2.47;;;1.45;;
20855;SDS011;63058;49.424;8.420;2023-07-22T09:37:54;3.08;;;1.15;;
20855;SDS011;63058;49.424;8.420;2023-07-22T09:40:21;3.05;;;1.40;;
20855;SDS011;63058;49.424;8.420;2023-07-22T09:42:51;2.53;;;1.35;;
20855;SDS011;63058;49.424;8.420;2023-07-22T09:45:22;7.20;;;1.45;;
20855;SDS011;63058;49.424;8.420;2023-07-22T09:47:49;1.80;;;1.17;;
20855;SDS011;63058;49.424;8.420;2023-07-22T09:50:18;2.53;;;1.70;;
20855;SDS011;63058;49.424;8.420;2023-07-22T09:52:50;1.85;;;1.40;;
20855;SDS011;63058;49.424;8.420;2023-07-22T09:55:21;4.25;;;1.40;;
20855;SDS011;63058;49.424;8.420;2023-07-22T09:58:06;3.35;;;1.63;;
20855;SDS011;63058;49.424;8.420;2023-07-22T10:00:34;2.78;;;1.13;;
20855;SDS011;63058;49.424;8.420;2023-07-22T10:03:01;2.65;;;1.30;;
20855;SDS011;63058;49.424;8.420;2023-07-22T10:05:30;1.33;;;1.05;;
20855;SDS011;63058;49.424;8.420;2023-07-22T10:07:59;3.00;;;1.27;;
20855;SDS011;63058;49.424;8.420;2023-07-22T10:10:27;1.75;;;1.20;;
20855;SDS011;63058;49.424;8.420;2023-07-22T10:13:07;3.00;;;1.25;;
20855;SDS011;63058;49.424;8.420;2023-07-22T10:15:33;1.40;;;1.08;;
20855;SDS011;63058;49.424;8.420;2023-07-22T10:18:00;2.72;;;1.25;;
20855;SDS011;63058;49.424;8.420;2023-07-22T10:20:27;1.60;;;1.20;;
20855;SDS011;63058;49.424;8.420;2023-07-22T10:22:54;4.03;;;1.30;;
20855;SDS011;63058;49.424;8.420;2023-07-22T10:25:20;2.00;;;1.27;;
20855;SDS011;63058;49.424;8.420;2023-07-22T10:27:47;4.05;;;1.35;;
20855;SDS011;63058;49.424;8.420;2023-07-22T10:30:14;2.80;;;1.33;;
20855;SDS011;63058;49.424;8.420;2023-07-22T10:35:39;2.17;;;1.55;;
20855;SDS011;63058;49.424;8.420;2023-07-22T10:38:36;3.95;;;1.08;;
20855;SDS011;63058;49.424;8.420;2023-07-22T10:41:16;5.68;;;1.70;;
20855;SDS011;63058;49.424;8.420;2023-07-22T10:43:42;1.77;;;1.20;;
20855;SDS011;63058;49.424;8.420;2023-07-22T10:49:45;1.75;;;1.40;;
20855;SDS011;63058;49.424;8.420;2023-07-22T11:04:28;2.13;;;1.48;;
20855;SDS011;63058;49.424;8.420;2023-07-22T11:07:53;2.25;;;1.40;;
20855;SDS011;63058;49.424;8.420;2023-07-22T11:10:54;1.67;;;1.45;;
20855;SDS011;63058;49.424;8.420;2023-07-22T11:13:26;1.75;;;1.65;;
20855;SDS011;63058;49.424;8.420;2023-07-22T11:15:53;6.00;;;1.25;;
20855;SDS011;63058;49.424;8.420;2023-07-22T11:18:32;3.45;;;1.88;;
20855;SDS011;63058;49.424;8.420;2023-07-22T11:21:07;4.00;;;1.50;;
20855;SDS011;63058;49.424;8.420;2023-07-22T11:23:36;1.83;;;1.27;;
20855;SDS011;63058;49.424;8.420;2023-07-22T11:26:02;2.67;;;1.55;;
20855;SDS011;63058;49.424;8.420;2023-07-22T11:28:29;3.30;;;1.30;;
20855;SDS011;63058;49.424;8.420;2023-07-22T11:30:55;1.45;;;1.10;;
20855;SDS011;63058;49.424;8.420;2023-07-22T11:33:21;3.00;;;0.90;;
20855;SDS011;63058;49.424;8.420;2023-07-22T11:35:47;3.80;;;1.15;;
20855;SDS011;63058;49.424;8.420;2023-07-22T11:38:12;1.20;;;1.10;;
20855;SDS011;63058;49.424;8.420;2023-07-22T11:40:38;2.35;;;1.33;;
20855;SDS011;63058;49.424;8.420;2023-07-22T11:43:04;1.75;;;1.20;;
20855;SDS011;63058;49.424;8.420;2023-07-22T11:45:29;1.33;;;1.20;;
20855;SDS011;63058;49.424;8.420;2023-07-22T11:47:55;2.40;;;1.33;;
20855;SDS011;63058;49.424;8.420;2023-07-22T11:50:33;2.88;;;1.33;;
20855;SDS011;63058;49.424;8.420;2023-07-22T11:52:59;1.23;;;1.10;;
20855;SDS011;63058;49.424;8.420;2023-07-22T11:55:25;1.50;;;1.30;;
20855;SDS011;63058;49.424;8.420;2023-07-22T11:57:54;1.50;;;1.02;;
20855;SDS011;63058;49.424;8.420;2023-07-22T12:00:20;1.70;;;1.00;;
20855;SDS011;63058;49.424;8.420;2023-07-22T12:02:46;1.30;;;1.10;;
20855;SDS011;63058;49.424;8.420;2023-07-22T12:05:18;1.83;;;1.05;;
20855;SDS011;63058;49.424;8.420;2023-07-22T12:07:46;3.13;;;1.13;;
20855;SDS011;63058;49.424;8.420;2023-07-22T12:10:11;2.10;;;1.20;;
20855;SDS011;63058;49.424;8.420;2023-07-22T12:15:11;1.60;;;1.00;;
20855;SDS011;63058;49.424;8.420;2023-07-22T12:17:59;1.70;;;1.20;;
20855;SDS011;63058;49.424;8.420;2023-07-22T12:20:26;1.77;;;1.30;;
20855;SDS011;63058;49.424;8.420;2023-07-22T12:22:54;1.52;;;1.20;;
20855;SDS011;63058;49.424;8.420;2023-07-22T12:25:21;2.05;;;1.30;;
20855;SDS011;63058;49.424;8.420;2023-07-22T12:27:47;2.22;;;1.40;;
20855;SDS011;63058;49.424;8.420;2023-07-22T12:30:12;2.25;;;1.33;;
20855;SDS011;63058;49.424;8.420;2023-07-22T12:32:38;1.73;;;1.38;;
20855;SDS011;63058;49.424;8.420;2023-07-22T12:35:05;2.58;;;1.17;;
20855;SDS011;63058;49.424;8.420;2023-07-22T12:37:31;3.55;;;1.50;;
20855;SDS011;63058;49.424;8.420;2023-07-22T12:39:56;3.45;;;1.40;;
20855;SDS011;63058;49.424;8.420;2023-07-22T12:42:22;3.35;;;1.20;;
20855;SDS011;63058;49.424;8.420;2023-07-22T12:44:48;5.57;;;1.70;;
20855;SDS011;63058;49.424;8.420;2023-07-22T12:47:14;4.43;;;2.33;;
20855;SDS011;63058;49.424;8.420;2023-07-22T12:49:39;2.53;;;1.80;;
20855;SDS011;63058;49.424;8.420;2023-07-22T12:52:05;2.25;;;1.52;;
20855;SDS011;63058;49.424;8.420;2023-07-22T12:54:35;2.60;;;1.67;;
20855;SDS011;63058;49.424;8.420;2023-07-22T12:57:01;2.72;;;1.50;;
20855;SDS011;63058;49.424;8.420;2023-07-22T12:59:27;2.83;;;1.67;;
20855;SDS011;63058;49.424;8.420;2023-07-22T13:01:52;2.30;;;1.58;;
20855;SDS011;63058;49.424;8.420;2023-07-22T13:04:18;2.22;;;1.50;;
20855;SDS011;63058;49.424;8.420;2023-07-22T13:06:44;2.78;;;1.63;;
20855;SDS011;63058;49.424;8.420;2023-07-22T13:09:10;1.75;;;1.50;;
20855;SDS011;63058;49.424;8.420;2023-07-22T13:11:35;2.00;;;1.48;;
20855;SDS011;63058;49.424;8.420;2023-07-22T13:14:01;4.32;;;1.25;;
20855;SDS011;63058;49.424;8.420;2023-07-22T13:16:27;1.67;;;1.30;;
20855;SDS011;63058;49.424;8.420;2023-07-22T13:18:53;2.28;;;1.55;;
20855;SDS011;63058;49.424;8.420;2023-07-22T13:21:19;1.70;;;1.60;;
20855;SDS011;63058;49.424;8.420;2023-07-22T13:23:44;5.28;;;1.50;;
20855;SDS011;63058;49.424;8.420;2023-07-22T13:26:10;1.80;;;1.50;;
20855;SDS011;63058;49.424;8.420;2023-07-22T13:28:35;2.67;;;1.70;;
20855;SDS011;63058;49.424;8.420;2023-07-22T13:31:01;2.65;;;1.63;;
20855;SDS011;63058;49.424;8.420;2023-07-22T13:33:26;2.25;;;1.65;;
20855;SDS011;63058;49.424;8.420;2023-07-22T13:35:52;2.17;;;1.70;;
20855;SDS011;63058;49.424;8.420;2023-07-22T13:38:18;2.15;;;1.50;;
20855;SDS011;63058;49.424;8.420;2023-07-22T13:40:43;1.52;;;1.20;;
20855;SDS011;63058;49.424;8.420;2023-07-22T13:43:09;2.90;;;1.80;;
20855;SDS011;63058;49.424;8.420;2023-07-22T13:45:35;2.55;;;1.70;;
20855;SDS011;63058;49.424;8.420;2023-07-22T13:48:00;2.53;;;1.70;;
20855;SDS011;63058;49.424;8.420;2023-07-22T13:50:26;2.72;;;1.80;;
20855;SDS011;63058;49.424;8.420;2023-07-22T13:52:52;2.10;;;1.73;;
20855;SDS011;63058;49.424;8.420;2023-07-22T13:55:17;1.95;;;1.55;;
20855;SDS011;63058;49.424;8.420;2023-07-22T13:57:43;2.17;;;1.20;;
20855;SDS011;63058;49.424;8.420;2023-07-22T14:00:08;3.05;;;1.58;;
20855;SDS011;63058;49.424;8.420;2023-07-22T14:02:35;1.55;;;1.13;;
20855;SDS011;63058;49.424;8.420;2023-07-22T14:05:02;1.77;;;1.50;;
20855;SDS011;63058;49.424;8.420;2023-07-22T14:07:28;1.92;;;1.30;;
20855;SDS011;63058;49.424;8.420;2023-07-22T14:09:54;3.22;;;1.30;;
20855;SDS011;63058;49.424;8.420;2023-07-22T14:12:20;2.67;;;1.90;;
20855;SDS011;63058;49.424;8.420;2023-07-22T14:14:45;1.95;;;1.60;;
20855;SDS011;63058;49.424;8.420;2023-07-22T14:17:11;1.70;;;1.30;;
20855;SDS011;63058;49.424;8.420;2023-07-22T14:19:37;2.35;;;1.50;;
20855;SDS011;63058;49.424;8.420;2023-07-22T14:22:03;1.98;;;1.40;;
20855;SDS011;63058;49.424;8.420;2023-07-22T14:24:29;1.60;;;1.27;;
20855;SDS011;63058;49.424;8.420;2023-07-22T14:26:54;2.28;;;1.30;;
20855;SDS011;63058;49.424;8.420;2023-07-22T14:29:20;2.22;;;1.60;;
20855;SDS011;63058;49.424;8.420;2023-07-22T14:31:46;1.90;;;1.50;;
20855;SDS011;63058;49.424;8.420;2023-07-22T14:34:12;2.05;;;1.40;;
20855;SDS011;63058;49.424;8.420;2023-07-22T14:36:38;2.42;;;1.60;;
20855;SDS011;63058;49.424;8.420;2023-07-22T14:39:03;2.92;;;1.42;;
20855;SDS011;63058;49.424;8.420;2023-07-22T14:41:29;2.30;;;1.40;;
20855;SDS011;63058;49.424;8.420;2023-07-22T14:43:55;3.17;;;2.00;;
20855;SDS011;63058;49.424;8.420;2023-07-22T14:46:22;2.30;;;1.88;;
20855;SDS011;63058;49.424;8.420;2023-07-22T14:48:47;2.35;;;1.77;;
20855;SDS011;63058;49.424;8.420;2023-07-22T14:51:13;2.33;;;1.33;;
20855;SDS011;63058;49.424;8.420;2023-07-22T14:53:39;1.30;;;1.17;;
20855;SDS011;63058;49.424;8.420;2023-07-22T14:56:04;2.13;;;1.52;;
20855;SDS011;63058;49.424;8.420;2023-07-22T14:58:31;1.85;;;1.52;;
20855;SDS011;63058;49.424;8.420;2023-07-22T15:00:57;4.78;;;1.52;;
20855;SDS011;63058;49.424;8.420;2023-07-22T15:03:24;3.30;;;1.45;;
20855;SDS011;63058;49.424;8.420;2023-07-22T15:05:50;2.03;;;1.60;;
20855;SDS011;63058;49.424;8.420;2023-07-22T15:08:16;2.50;;;1.60;;
20855;SDS011;63058;49.424;8.420;2023-07-22T15:10:41;1.77;;;1.40;;